Time;durP1;ratioP1;P1;durP2;ratioP2;P2;SDS_P1;SDS_P2;PMS_P1;PMS_P2;Temp;Humidity;BMP_temperature;BMP_pressure;BME280_temperature;BME280_humidity;BME280_pressure;Samples;Min_cycle;Max_cycle;Signal;HPM_P1;HPM_P2
2021/08/09 00:01:12;;;;;;;;;1.00;1.00;;;;;20.35;53.17;101177.88;5000490;28;45357;-76
2021/08/09 00:03:37;;;;;;;;;3.50;0.00;;;;;20.33;53.30;101182.56;5000059;28;46058;-76
2021/08/09 00:06:03;;;;;;;;;0.75;0.75;;;;;20.30;53.15;101193.59;5000879;28;45319;-76
2021/08/09 00:08:28;;;;;;;;;0.00;0.00;;;;;20.29;53.40;101191.84;5000213;28;45756;-76
2021/08/09 00:10:54;;;;;;;;;0.75;0.00;;;;;20.29;53.38;101182.84;4999053;28;47114;-76
2021/08/09 00:13:19;;;;;;;;;0.00;0.00;;;;;20.26;53.15;101185.75;5000280;28;45340;-76
2021/08/09 00:15:44;;;;;;;;;0.75;0.75;;;;;20.25;53.11;101179.47;5000674;28;45239;-76
2021/08/09 00:18:10;;;;;;;;;0.00;0.00;;;;;20.16;53.45;101159.28;4999924;28;45213;-76
2021/08/09 00:20:35;;;;;;;;;1.00;0.50;;;;;20.12;53.66;101155.00;5000315;28;45524;-76
2021/08/09 00:23:01;;;;;;;;;0.75;0.75;;;;;20.18;53.51;101164.59;4999987;28;45243;-76
2021/08/09 00:25:26;;;;;;;;;0.25;0.25;;;;;20.10;53.35;101146.13;5000443;28;45435;-76
2021/08/09 00:27:52;;;;;;;;;2.00;2.00;;;;;20.06;53.70;101143.72;5000130;28;45209;-76
2021/08/09 00:30:17;;;;;;;;;1.75;0.75;;;;;20.18;53.64;101161.88;5000075;28;45730;-76
2021/08/09 00:32:43;;;;;;;;;1.00;1.00;;;;;20.11;53.34;101164.13;4999783;28;45245;-76
2021/08/09 00:35:09;;;;;;;;;0.00;0.00;;;;;20.14;53.33;101173.88;5000191;28;45564;-77
2021/08/09 00:37:34;;;;;;;;;1.00;1.00;;;;;19.97;53.18;101151.47;5000059;28;45174;-76
2021/08/09 00:40:00;;;;;;;;;1.00;1.00;;;;;20.14;53.64;101179.31;4999971;28;46071;-76
2021/08/09 00:42:25;;;;;;;;;0.00;0.00;;;;;20.03;53.90;101160.16;4998522;28;45392;-76
2021/08/09 00:44:50;;;;;;;;;1.00;1.00;;;;;19.85;53.94;101135.16;5000248;28;45370;-76
2021/08/09 00:47:16;;;;;;;;;2.00;0.50;;;;;20.01;53.93;101156.69;4999588;28;45434;-76
2021/08/09 00:49:41;;;;;;;;;2.25;0.00;;;;;20.04;53.78;101170.91;4999939;28;45433;-76
2021/08/09 00:52:07;;;;;;;;;1.00;1.00;;;;;20.05;53.77;101169.94;4999800;28;45302;-76
2021/08/09 00:54:34;;;;;;;;;1.00;1.00;;;;;20.03;53.87;101160.16;4999804;28;45454;-76
2021/08/09 00:57:01;;;;;;;;;0.75;0.75;;;;;19.96;54.18;101149.75;5000116;28;45319;-76
2021/08/09 00:59:28;;;;;;;;;2.50;0.00;;;;;19.95;53.75;101145.28;5001974;28;47059;-75
2021/08/09 01:01:53;;;;;;;;;0.00;0.00;;;;;19.95;53.95;101153.41;5003047;28;45382;-76
2021/08/09 01:04:18;;;;;;;;;1.00;1.00;;;;;20.01;53.97;101164.81;5003368;28;45288;-76
2021/08/09 01:06:44;;;;;;;;;3.00;2.00;;;;;19.97;54.49;101159.59;5002982;28;45288;-76
2021/08/09 01:09:21;;;;;;;;;0.50;0.50;;;;;19.96;54.21;101155.16;5003277;28;45150;-76
2021/08/09 01:11:49;;;;;;;;;0.25;0.00;;;;;19.95;54.05;101156.13;5002987;28;45499;-75
2021/08/09 01:14:21;;;;;;;;;2.75;0.75;;;;;19.95;53.93;101149.84;5003341;28;45423;-76
2021/08/09 01:16:48;;;;;;;;;0.25;0.25;;;;;19.93;54.45;101144.53;5002705;28;45355;-76
2021/08/09 01:19:32;;;;;;;;;0.00;0.00;;;;;19.93;54.21;101147.25;5001649;28;47529;-76
2021/08/09 01:22:18;;;;;;;;;1.75;0.75;;;;;19.89;54.15;101137.56;5002811;28;45441;-76
2021/08/09 01:25:02;;;;;;;;;0.25;0.25;;;;;19.81;54.29;101123.63;5002894;28;45319;-76
2021/08/09 01:27:30;;;;;;;;;2.75;1.00;;;;;19.78;54.14;101134.69;5002959;28;45413;-76
2021/08/09 01:30:00;;;;;;;;;0.25;0.00;;;;;19.79;53.86;101136.41;5002655;28;46253;-77
2021/08/09 01:32:27;;;;;;;;;1.75;0.75;;;;;19.78;54.07;101127.44;5002266;28;45590;-76
2021/08/09 01:34:55;;;;;;;;;2.50;1.00;;;;;19.84;54.09;101142.41;5002844;28;45319;-76
2021/08/09 01:37:21;;;;;;;;;1.00;1.00;;;;;19.80;54.13;101140.88;5002700;28;45452;-76
2021/08/09 01:39:48;;;;;;;;;1.00;1.00;;;;;19.70;54.40;101127.03;5002744;28;45362;-76
2021/08/09 01:42:16;;;;;;;;;1.75;1.00;;;;;19.80;54.24;101140.88;5002524;28;45217;-76
2021/08/09 01:44:41;;;;;;;;;1.75;1.00;;;;;19.78;54.20;101137.41;5002982;28;46490;-76
2021/08/09 01:47:07;;;;;;;;;1.75;1.00;;;;;19.76;54.23;101139.31;5002282;28;46163;-76
2021/08/09 01:49:33;;;;;;;;;1.00;1.00;;;;;19.74;54.00;101146.66;5002667;28;45398;-76
2021/08/09 01:52:01;;;;;;;;;0.00;0.00;;;;;19.67;54.29;101134.47;5001142;28;45475;-76
2021/08/09 01:54:27;;;;;;;;;1.00;1.00;;;;;19.62;54.45;101143.75;5002590;28;45538;-76
2021/08/09 01:56:53;;;;;;;;;0.00;0.00;;;;;19.71;54.30;101152.25;5002289;28;45458;-76
2021/08/09 01:59:22;;;;;;;;;2.00;1.00;;;;;19.63;54.71;101150.06;5002375;28;47592;-76
2021/08/09 02:01:48;;;;;;;;;1.00;1.00;;;;;19.70;54.48;101142.41;5002051;28;45332;-76
2021/08/09 02:04:13;;;;;;;;;2.00;1.00;;;;;19.69;54.58;101137.94;5002328;28;45367;-76
2021/08/09 02:06:39;;;;;;;;;0.25;0.25;;;;;19.62;54.59;101132.06;5002075;28;45500;-76
2021/08/09 02:09:07;;;;;;;;;1.00;1.00;;;;;19.59;54.55;101135.81;5000235;28;48425;-76
2021/08/09 02:11:44;;;;;;;;;1.00;1.00;;;;;19.68;54.75;101153.34;5002169;28;45163;-76
2021/08/09 02:14:12;;;;;;;;;0.00;0.00;;;;;19.67;54.73;101151.59;5002362;28;45547;-76
2021/08/09 02:16:53;;;;;;;;;0.50;0.50;;;;;19.62;54.73;101146.47;5000531;28;45492;-75
2021/08/09 02:19:39;;;;;;;;;1.00;0.00;;;;;19.61;54.73;101155.56;5002079;28;45362;-76
2021/08/09 02:22:10;;;;;;;;;0.00;0.00;;;;;19.59;54.76;101149.38;5002116;28;45269;-76
2021/08/09 02:25:06;;;;;;;;;2.00;1.00;;;;;19.46;54.89;101137.56;5002081;28;45247;-75
2021/08/09 02:27:56;;;;;;;;;2.75;1.00;;;;;19.52;55.09;101148.03;4997977;28;45474;-76
2021/08/09 02:30:24;;;;;;;;;1.25;1.25;;;;;19.51;54.88;101148.13;5001886;28;45446;-76
2021/08/09 02:32:54;;;;;;;;;2.00;1.00;;;;;19.47;55.26;101147.44;5000049;28;45450;-76
2021/08/09 02:35:22;;;;;;;;;1.00;1.00;;;;;19.43;55.18;101145.91;5002098;28;45273;-76
2021/08/09 02:37:50;;;;;;;;;1.00;1.00;;;;;19.37;54.86;101132.75;5001612;28;45462;-76
2021/08/09 02:40:17;;;;;;;;;1.00;1.00;;;;;19.38;55.52;101137.22;5001967;28;46449;-76
2021/08/09 02:42:43;;;;;;;;;1.00;1.00;;;;;19.32;55.40;101135.75;5001582;28;45439;-76
2021/08/09 02:45:10;;;;;;;;;1.75;1.00;;;;;19.37;55.39;101138.16;5002105;28;45319;-76
2021/08/09 02:47:37;;;;;;;;;5.00;1.00;;;;;19.28;55.50;101123.38;5001140;28;45453;-76
2021/08/09 02:50:09;;;;;;;;;1.00;1.00;;;;;19.35;55.47;101145.53;5001692;28;46060;-75
2021/08/09 02:52:37;;;;;;;;;4.00;1.00;;;;;19.18;55.63;101124.94;5001276;28;45467;-76
2021/08/09 02:55:04;;;;;;;;;0.75;0.75;;;;;19.33;55.61;101152.84;5001505;28;45375;-76
2021/08/09 02:57:31;;;;;;;;;1.00;1.00;;;;;19.29;55.43;101148.59;5001371;28;45456;-75
2021/08/09 02:59:57;;;;;;;;;0.25;0.25;;;;;19.20;55.46;101141.94;5001457;28;45217;-76
2021/08/09 03:02:24;;;;;;;;;0.75;0.75;;;;;19.25;55.75;101143.38;5000972;28;45311;-75
2021/08/09 03:04:51;;;;;;;;;1.00;1.00;;;;;19.31;55.44;101149.38;5001430;28;45254;-76
2021/08/09 03:07:16;;;;;;;;;1.25;0.50;;;;;19.22;55.70;101143.56;5001125;28;45363;-76
2021/08/09 03:09:42;;;;;;;;;0.00;0.00;;;;;19.21;55.83;101143.66;5001139;28;46136;-76
2021/08/09 03:12:08;;;;;;;;;0.00;0.00;;;;;19.17;55.77;101134.00;5001013;28;45336;-76
2021/08/09 03:14:33;;;;;;;;;2.00;2.00;;;;;18.98;55.71;101113.50;5001319;28;45293;-76
2021/08/09 03:17:04;;;;;;;;;2.00;1.50;;;;;19.15;56.05;101139.50;5000853;28;45322;-75
2021/08/09 03:19:30;;;;;;;;;0.75;0.75;;;;;19.22;56.06;101148.97;5001113;28;47258;-76
2021/08/09 03:22:00;;;;;;;;;0.75;0.75;;;;;19.18;55.71;101139.31;5000180;28;45308;-76
2021/08/09 03:24:29;;;;;;;;;2.00;1.00;;;;;19.16;56.09;101152.09;5001274;28;45216;-76
2021/08/09 03:26:56;;;;;;;;;1.25;0.00;;;;;19.16;55.96;101151.19;5001075;28;45481;-76
2021/08/09 03:29:21;;;;;;;;;2.00;1.00;;;;;19.14;56.29;101155.84;5000914;28;47241;-76
2021/08/09 03:31:47;;;;;;;;;1.00;1.00;;;;;19.09;56.29;101153.41;5000866;28;45446;-77
2021/08/09 03:34:13;;;;;;;;;1.50;1.00;;;;;19.03;55.93;101149.25;5000622;28;45456;-77
2021/08/09 03:36:41;;;;;;;;;1.00;1.00;;;;;19.04;56.18;101151.00;5001089;28;45374;-76
2021/08/09 03:39:08;;;;;;;;;0.00;0.00;;;;;19.07;56.27;101158.06;5000645;28;46231;-76
2021/08/09 03:41:34;;;;;;;;;1.00;1.00;;;;;18.92;56.52;101132.81;5000823;28;45189;-76
2021/08/09 03:44:00;;;;;;;;;2.75;0.75;;;;;18.92;56.61;101146.34;5000784;28;45339;-75
2021/08/09 03:46:25;;;;;;;;;1.75;1.00;;;;;18.97;56.41;101157.75;4982865;28;45359;-76
2021/08/09 03:48:50;;;;;;;;;1.00;1.00;;;;;18.96;56.26;101157.84;5000402;28;45992;-76
2021/08/09 03:51:16;;;;;;;;;3.50;1.25;;;;;18.95;56.75;101156.97;5000785;28;45423;-76
2021/08/09 03:53:41;;;;;;;;;0.50;0.50;;;;;18.93;56.88;101155.31;5000553;28;45502;-75
2021/08/09 03:56:06;;;;;;;;;2.75;1.25;;;;;18.82;56.37;101137.00;5000373;28;45296;-76
2021/08/09 03:58:32;;;;;;;;;1.25;1.00;;;;;18.91;56.61;101151.84;5000506;28;46322;-76
2021/08/09 04:00:57;;;;;;;;;1.50;1.50;;;;;18.91;56.53;101159.94;5000448;28;45438;-76
2021/08/09 04:03:22;;;;;;;;;1.00;1.00;;;;;18.88;57.00;101161.03;5000503;28;45327;-76
2021/08/09 04:05:48;;;;;;;;;2.00;1.00;;;;;18.86;57.12;101155.72;5000544;28;45484;-76
2021/08/09 04:08:13;;;;;;;;;2.00;2.00;;;;;18.87;57.17;101159.28;5000229;28;46209;-76
2021/08/09 04:10:39;;;;;;;;;1.00;1.00;;;;;18.83;56.84;101150.47;5000317;28;45254;-76
2021/08/09 04:13:04;;;;;;;;;1.00;1.00;;;;;18.72;56.78;101141.25;4999223;28;45456;-76
2021/08/09 04:15:30;;;;;;;;;2.00;2.00;;;;;18.77;56.90;101152.66;4999099;28;45277;-76
2021/08/09 04:17:55;;;;;;;;;1.75;1.75;;;;;18.76;56.91;101153.59;4998607;28;46489;-76
2021/08/09 04:20:20;;;;;;;;;4.00;2.50;;;;;18.72;56.95;101154.75;5000290;28;45225;-75
2021/08/09 04:22:46;;;;;;;;;2.00;2.00;;;;;18.69;56.85;101159.41;5000171;28;45229;-76
2021/08/09 04:25:11;;;;;;;;;2.00;1.50;;;;;18.74;56.97;101182.56;5000272;28;45215;-76
2021/08/09 04:27:36;;;;;;;;;2.00;2.00;;;;;18.67;57.22;101176.66;4998693;28;46129;-75
2021/08/09 04:30:03;;;;;;;;;2.00;2.00;;;;;18.70;57.39;101195.41;5000156;28;45272;-76
2021/08/09 04:32:39;;;;;;;;;5.25;2.00;;;;;18.61;57.27;101187.84;5002047;28;45372;-76
2021/08/09 04:35:06;;;;;;;;;1.25;1.25;;;;;18.59;57.41;101193.31;5006726;28;45242;-76
2021/08/09 04:37:32;;;;;;;;;2.00;1.00;;;;;18.64;57.31;101203.88;5006454;28;46238;-76
2021/08/09 04:39:57;;;;;;;;;2.25;1.00;;;;;18.61;57.36;101202.25;5006741;28;45409;-76
2021/08/09 04:42:22;;;;;;;;;1.00;1.00;;;;;18.48;57.92;101188.56;5006503;28;45384;-76
2021/08/09 04:44:47;;;;;;;;;2.50;2.00;;;;;18.56;57.67;101203.47;5006615;28;45448;-76
2021/08/09 04:47:13;;;;;;;;;1.75;1.25;;;;;18.46;57.45;101181.50;5004597;28;48034;-76
2021/08/09 04:49:38;;;;;;;;;0.50;0.50;;;;;18.57;58.05;101206.06;5006625;28;45311;-76
2021/08/09 04:52:04;;;;;;;;;1.50;1.50;;;;;18.58;57.73;101209.66;5006416;28;45240;-76
2021/08/09 04:54:29;;;;;;;;;2.50;0.75;;;;;18.46;58.10;101200.41;5006166;28;45482;-76
2021/08/09 04:56:54;;;;;;;;;1.50;1.50;;;;;18.57;57.86;101211.47;5006242;28;45377;-75
2021/08/09 04:59:20;;;;;;;;;2.75;2.00;;;;;18.37;57.68;101180.19;5006417;28;45225;-77
2021/08/09 05:01:45;;;;;;;;;2.00;2.00;;;;;18.45;57.77;101193.28;5006289;28;45306;-76
2021/08/09 05:04:10;;;;;;;;;2.00;2.00;;;;;18.55;57.96;101209.84;5004970;28;45363;-76
2021/08/09 05:06:36;;;;;;;;;3.00;2.00;;;;;18.52;57.75;101200.06;5005973;28;46092;-76
2021/08/09 05:09:01;;;;;;;;;3.00;3.00;;;;;18.49;58.14;101187.63;5006569;28;45343;-76
2021/08/09 05:11:26;;;;;;;;;3.00;3.00;;;;;18.55;57.82;101199.03;5006204;28;45332;-76
2021/08/09 05:13:52;;;;;;;;;1.75;1.00;;;;;18.44;57.87;101191.53;5006259;28;45474;-75
2021/08/09 05:16:17;;;;;;;;;2.00;2.00;;;;;18.24;57.87;101163.84;5005835;28;45217;-76
2021/08/09 05:18:42;;;;;;;;;1.00;1.00;;;;;18.38;58.30;101181.09;5006157;28;45374;-76
2021/08/09 05:21:08;;;;;;;;;1.00;1.00;;;;;18.47;58.24;101208.44;5006215;28;45273;-76
2021/08/09 05:23:33;;;;;;;;;2.00;2.00;;;;;18.54;58.35;101224.31;5006159;28;45165;-76
2021/08/09 05:25:58;;;;;;;;;3.00;2.00;;;;;18.55;58.34;101223.34;5005928;28;45745;-77
2021/08/09 05:28:24;;;;;;;;;3.00;1.75;;;;;18.46;58.47;101200.41;5006139;28;45380;-76
2021/08/09 05:30:49;;;;;;;;;1.00;1.00;;;;;18.47;58.21;101208.44;5005849;28;45228;-76
2021/08/09 05:33:15;;;;;;;;;1.00;1.00;;;;;18.45;58.40;101202.25;5005757;28;45197;-76
2021/08/09 05:35:40;;;;;;;;;2.75;2.75;;;;;18.24;58.35;101168.38;5005647;28;45418;-76
2021/08/09 05:38:08;;;;;;;;;1.50;1.00;;;;;18.44;58.50;101196.94;5006008;28;45426;-76
2021/08/09 05:40:35;;;;;;;;;2.50;2.00;;;;;18.47;58.58;101205.72;5005990;28;45379;-76
2021/08/09 05:43:01;;;;;;;;;3.00;1.00;;;;;18.44;58.59;101197.81;5005880;28;45391;-76
2021/08/09 05:45:26;;;;;;;;;6.00;1.75;;;;;18.52;59.04;101211.75;5001609;28;45435;-76
2021/08/09 05:47:51;;;;;;;;;1.75;1.75;;;;;18.47;58.81;101204.88;5002293;28;45387;-76
2021/08/09 05:50:17;;;;;;;;;2.00;1.75;;;;;18.56;59.04;101222.38;5002613;28;45638;-76
2021/08/09 05:52:42;;;;;;;;;2.00;2.00;;;;;18.41;59.32;101195.31;5002467;28;45150;-75
2021/08/09 05:55:08;;;;;;;;;2.00;2.00;;;;;18.52;59.04;101230.66;5001962;28;45260;-76
2021/08/09 05:57:33;;;;;;;;;1.50;0.50;;;;;18.50;58.92;101221.78;5002331;28;45253;-76
2021/08/09 05:59:59;;;;;;;;;2.25;2.00;;;;;18.51;59.40;101212.72;5002519;28;45330;-76
2021/08/09 06:02:24;;;;;;;;;1.75;1.75;;;;;18.48;59.42;101206.63;5001923;28;45224;-76
2021/08/09 06:04:49;;;;;;;;;2.00;1.50;;;;;18.52;58.97;101222.56;5002224;28;46005;-76
2021/08/09 06:07:16;;;;;;;;;2.50;1.00;;;;;18.55;59.20;101226.94;5002162;28;45257;-76
2021/08/09 06:09:43;;;;;;;;;2.00;2.00;;;;;18.52;59.76;101219.84;5002491;28;45355;-76
2021/08/09 06:12:09;;;;;;;;;4.00;3.00;;;;;18.42;59.26;101209.69;5000763;28;45517;-75
2021/08/09 06:14:35;;;;;;;;;2.00;2.00;;;;;18.47;59.27;101224.66;5002043;28;46344;-76
2021/08/09 06:17:00;;;;;;;;;3.25;2.25;;;;;18.51;59.76;101223.53;5001938;28;45261;-76
2021/08/09 06:19:26;;;;;;;;;3.75;2.00;;;;;18.54;59.51;101233.28;5002191;28;45210;-76
2021/08/09 06:21:51;;;;;;;;;4.00;3.00;;;;;18.56;59.43;101233.19;5002092;28;45177;-76
2021/08/09 06:24:16;;;;;;;;;3.00;3.00;;;;;18.64;59.74;101239.03;5000736;28;46310;-76
2021/08/09 06:26:42;;;;;;;;;2.75;1.50;;;;;18.65;59.50;101240.78;5000423;28;45419;-76
2021/08/09 06:29:07;;;;;;;;;3.25;3.00;;;;;18.65;59.50;101243.50;5002110;28;45226;-76
2021/08/09 06:31:32;;;;;;;;;4.25;2.50;;;;;18.64;59.67;101237.22;5001523;28;45178;-76
2021/08/09 06:33:58;;;;;;;;;3.50;3.50;;;;;18.67;60.03;101250.53;5001478;28;46112;-76
2021/08/09 06:36:23;;;;;;;;;2.50;2.50;;;;;18.43;59.53;101193.38;5001571;28;45366;-76
2021/08/09 06:38:48;;;;;;;;;2.50;1.50;;;;;18.65;59.70;101243.50;5001838;28;45248;-76
2021/08/09 06:41:21;;;;;;;;;4.50;2.00;;;;;18.68;59.55;101252.28;5001459;28;45249;-76
2021/08/09 06:43:47;;;;;;;;;3.00;1.75;;;;;18.74;60.24;101258.28;5001569;28;45405;-75
2021/08/09 06:46:14;;;;;;;;;1.75;1.50;;;;;18.64;60.31;101247.13;5001245;28;45411;-76
2021/08/09 06:48:39;;;;;;;;;2.00;2.00;;;;;18.68;59.91;101254.13;5001598;28;45457;-76
2021/08/09 06:51:05;;;;;;;;;4.25;2.00;;;;;18.65;60.62;101251.59;5001629;28;45515;-76
2021/08/09 06:53:30;;;;;;;;;4.00;3.25;;;;;18.66;60.46;101250.63;5001401;28;46276;-75
2021/08/09 06:55:55;;;;;;;;;2.00;2.00;;;;;18.41;60.19;101225.03;5001057;28;45386;-76
2021/08/09 06:58:20;;;;;;;;;3.00;1.00;;;;;18.70;60.73;101260.31;5001550;28;45363;-76
2021/08/09 07:00:46;;;;;;;;;5.00;3.00;;;;;18.73;60.85;101268.25;5001098;28;45431;-76
2021/08/09 07:03:11;;;;;;;;;3.25;3.00;;;;;18.62;60.93;101246.38;5001141;28;46301;-76
2021/08/09 07:05:44;;;;;;;;;2.50;2.00;;;;;18.69;61.15;101262.16;5001219;28;45372;-76
2021/08/09 07:08:10;;;;;;;;;3.00;3.00;;;;;18.66;61.46;101264.13;5001314;28;45236;-75
2021/08/09 07:10:36;;;;;;;;;2.00;2.00;;;;;18.71;61.47;101267.47;4999942;28;45348;-76
2021/08/09 07:13:02;;;;;;;;;4.00;3.00;;;;;18.72;61.51;101271.03;5001201;28;46168;-76
2021/08/09 07:15:27;;;;;;;;;3.25;2.00;;;;;18.69;61.12;101261.25;5001268;28;45248;-76
2021/08/09 07:17:52;;;;;;;;;3.50;1.50;;;;;18.72;61.11;101268.34;4999685;28;45648;-76
2021/08/09 07:20:18;;;;;;;;;5.25;1.00;;;;;18.74;61.14;101267.28;5001319;28;45306;-76
2021/08/09 07:22:46;;;;;;;;;3.00;2.00;;;;;18.76;61.85;101275.28;5000908;28;45457;-76
2021/08/09 07:25:14;;;;;;;;;2.50;1.75;;;;;18.69;61.73;101263.97;5016212;28;45236;-76
2021/08/09 07:27:41;;;;;;;;;4.25;2.00;;;;;18.69;62.04;101256.75;5001231;28;45236;-75
2021/08/09 07:30:09;;;;;;;;;3.00;2.00;;;;;18.79;62.06;101272.41;5001083;28;45589;-77
2021/08/09 07:32:34;;;;;;;;;1.25;1.25;;;;;18.81;62.40;101270.50;5000542;28;45451;-76
2021/08/09 07:35:00;;;;;;;;;3.50;2.50;;;;;18.82;62.30;101272.25;5000911;28;45452;-76
2021/08/09 07:37:25;;;;;;;;;3.00;2.25;;;;;18.75;62.06;101262.75;5001158;28;45301;-76
2021/08/09 07:39:50;;;;;;;;;3.25;2.50;;;;;18.75;61.86;101263.63;5001001;28;45257;-76
2021/08/09 07:42:16;;;;;;;;;1.25;1.25;;;;;18.87;62.44;101279.16;5000636;28;45320;-76
2021/08/09 07:44:41;;;;;;;;;4.25;3.00;;;;;18.77;62.46;101250.00;4999550;28;45225;-76
2021/08/09 07:47:06;;;;;;;;;1.75;1.75;;;;;18.90;63.02;101275.41;5000644;28;45200;-76
2021/08/09 07:49:32;;;;;;;;;2.75;2.75;;;;;18.93;62.76;101286.06;5000686;28;45317;-78
2021/08/09 07:51:57;;;;;;;;;4.00;2.00;;;;;18.86;62.71;101266.59;5000618;28;46416;-79
2021/08/09 07:54:25;;;;;;;;;2.00;2.00;;;;;18.84;62.55;101264.94;5000309;28;45162;-76
2021/08/09 07:56:51;;;;;;;;;1.50;1.50;;;;;18.95;62.65;101285.97;5000738;28;45375;-76
2021/08/09 07:59:16;;;;;;;;;4.00;2.25;;;;;18.84;62.80;101275.75;5000668;28;45452;-76
2021/08/09 08:01:41;;;;;;;;;2.00;2.00;;;;;18.81;62.56;101268.69;5000187;28;46076;-76
2021/08/09 08:04:07;;;;;;;;;3.00;3.00;;;;;18.93;62.82;101282.44;5000586;28;45423;-77
2021/08/09 08:06:33;;;;;;;;;4.25;3.25;;;;;18.69;62.70;101237.81;5000162;28;45253;-76
2021/08/09 08:08:58;;;;;;;;;3.00;2.00;;;;;18.91;62.72;101282.56;4985811;28;45409;-76
2021/08/09 08:11:24;;;;;;;;;2.00;2.00;;;;;18.95;62.36;101285.97;4999041;28;45373;-75
2021/08/09 08:13:49;;;;;;;;;3.00;2.50;;;;;18.97;62.90;101300.25;5000179;28;45308;-77
2021/08/09 08:16:14;;;;;;;;;2.25;2.25;;;;;18.97;62.54;101290.31;5000249;28;45356;-75
2021/08/09 08:18:40;;;;;;;;;1.50;1.50;;;;;18.89;62.62;101273.66;5000047;28;45380;-76
2021/08/09 08:21:05;;;;;;;;;4.00;2.75;;;;;19.05;62.46;101289.84;5000207;28;45372;-76
2021/08/09 08:23:30;;;;;;;;;3.25;2.25;;;;;19.00;62.79;101273.03;5000147;28;45358;-76
2021/08/09 08:25:56;;;;;;;;;2.25;2.25;;;;;19.01;62.77;101278.34;4998884;28;45233;-73
2021/08/09 08:28:21;;;;;;;;;3.00;3.00;;;;;19.10;62.83;101290.47;4998933;28;46073;-80
2021/08/09 08:30:46;;;;;;;;;3.75;3.00;;;;;19.09;63.01;101288.69;4999859;28;46287;-80
2021/08/09 08:33:12;;;;;;;;;4.00;3.00;;;;;18.90;63.24;101248.34;4999940;28;45284;-80
2021/08/09 08:35:37;;;;;;;;;2.25;2.00;;;;;19.03;62.84;101284.53;4998903;28;45302;-80
2021/08/09 08:38:03;;;;;;;;;4.00;2.75;;;;;19.01;62.68;101270.25;5000046;28;45222;-80
2021/08/09 08:40:28;;;;;;;;;3.00;3.00;;;;;19.05;62.68;101284.44;5000043;28;45227;-79
2021/08/09 08:42:54;;;;;;;;;3.00;3.00;;;;;18.95;62.58;101256.19;4999923;28;45360;-88
2021/08/09 08:45:22;;;;;;;;;2.25;2.25;;;;;19.20;62.76;101291.63;5000272;28;45355;-79
2021/08/09 08:47:48;;;;;;;;;2.50;2.50;;;;;19.23;63.02;101288.75;4999778;28;45559;-80
2021/08/09 08:50:19;;;;;;;;;5.00;2.25;;;;;19.27;62.81;101291.28;4999777;28;46352;-80
2021/08/09 08:52:48;;;;;;;;;2.00;2.00;;;;;19.30;62.82;101294.66;4999768;28;45203;-80
2021/08/09 08:55:16;;;;;;;;;6.00;4.75;;;;;19.32;62.78;101291.88;4999805;28;45363;-80
2021/08/09 08:57:41;;;;;;;;;3.00;2.00;;;;;19.31;62.65;101292.81;4999809;28;45519;-80
2021/08/09 09:00:07;;;;;;;;;3.50;2.25;;;;;19.33;62.52;101282.78;4999813;28;45324;-81
2021/08/09 09:02:35;;;;;;;;;2.00;2.00;;;;;19.44;62.45;101299.25;4998139;28;45396;-81
2021/08/09 09:05:11;;;;;;;;;2.00;2.00;;;;;19.44;62.26;101291.13;4999790;28;45331;-76
2021/08/09 09:07:39;;;;;;;;;3.00;3.00;;;;;19.54;62.41;101308.53;4999647;28;45439;-77
2021/08/09 09:10:21;;;;;;;;;3.25;3.25;;;;;19.56;62.56;101317.47;4999392;28;45497;-83
2021/08/09 09:13:05;;;;;;;;;3.00;3.00;;;;;19.62;62.19;101316.22;4999611;28;45452;-77
2021/08/09 09:15:32;;;;;;;;;4.75;2.00;;;;;19.66;62.19;101322.31;4999504;28;45443;-76
2021/08/09 09:17:57;;;;;;;;;3.75;2.00;;;;;19.60;61.97;101310.88;4999558;28;45367;-82
2021/08/09 09:20:28;;;;;;;;;2.50;2.50;;;;;19.60;61.64;101302.75;5000310;28;45632;-84
2021/08/09 09:23:16;;;;;;;;;3.00;2.00;;;;;19.77;61.73;101334.25;5002952;28;45201;-84
2021/08/09 09:25:44;;;;;;;;;2.75;2.75;;;;;19.79;61.74;101328.72;5002935;28;45416;-76
2021/08/09 09:28:33;;;;;;;;;3.00;3.00;;;;;19.84;61.08;101334.75;5002834;28;45437;-76
2021/08/09 09:31:06;;;;;;;;;3.00;3.00;;;;;19.88;61.25;101339.03;5002483;28;46313;-77
2021/08/09 09:33:32;;;;;;;;;2.50;2.00;;;;;19.91;61.20;101343.34;5001429;28;45339;-76
2021/08/09 09:36:04;;;;;;;;;3.75;2.00;;;;;19.93;60.88;101336.88;5002964;28;45415;-76
2021/08/09 09:38:40;;;;;;;;;2.00;2.00;;;;;19.94;60.96;101354.88;5004807;28;45529;-76
2021/08/09 09:41:07;;;;;;;;;2.00;1.25;;;;;19.97;60.62;101341.13;5002962;28;46337;-76
2021/08/09 09:43:40;;;;;;;;;3.50;2.50;;;;;19.99;60.38;101331.06;5002579;28;45356;-76
2021/08/09 09:46:06;;;;;;;;;3.25;3.25;;;;;20.01;60.22;101338.25;5002485;28;45288;-76
2021/08/09 09:48:36;;;;;;;;;3.75;3.00;;;;;20.04;60.54;101336.19;5002593;28;45237;-76
2021/08/09 09:51:13;;;;;;;;;5.50;2.75;;;;;20.05;60.38;101343.38;5002545;28;46466;-76
2021/08/09 09:53:40;;;;;;;;;2.00;2.00;;;;;20.09;60.63;101344.06;5002335;28;45576;-77
2021/08/09 09:56:06;;;;;;;;;3.00;3.00;;;;;20.10;60.59;101332.25;5002562;28;45225;-77
2021/08/09 09:58:35;;;;;;;;;3.25;2.50;;;;;20.16;61.24;101338.16;5002313;28;45399;-77
2021/08/09 10:01:01;;;;;;;;;3.00;3.00;;;;;20.24;60.88;101343.06;5002291;28;47208;-79
2021/08/09 10:03:29;;;;;;;;;3.50;3.00;;;;;20.31;60.54;101346.25;5002252;28;45371;-80
2021/08/09 10:05:55;;;;;;;;;2.25;2.25;;;;;20.38;60.46;101346.75;5002565;28;45450;-79
2021/08/09 10:08:25;;;;;;;;;2.50;2.50;;;;;20.41;60.48;101341.13;5002189;28;45415;-79
2021/08/09 10:10:52;;;;;;;;;4.00;3.00;;;;;20.46;60.11;101341.69;5002206;28;47335;-77
2021/08/09 10:13:22;;;;;;;;;4.25;3.75;;;;;20.54;60.13;101355.63;5002192;28;45474;-79
2021/08/09 10:15:52;;;;;;;;;3.50;2.00;;;;;20.58;59.63;101349.06;5002046;28;45239;-78
2021/08/09 10:18:27;;;;;;;;;6.00;3.25;;;;;20.61;59.23;101354.25;5001874;28;45378;-80
2021/08/09 10:20:54;;;;;;;;;3.00;2.00;;;;;20.60;59.33;101344.41;5002196;28;45977;-79
2021/08/09 10:23:42;;;;;;;;;3.00;3.00;;;;;20.63;59.32;101344.25;5001918;28;45510;-80
2021/08/09 10:26:10;;;;;;;;;2.50;2.00;;;;;20.63;59.21;101340.63;5001987;28;45414;-81
2021/08/09 10:28:54;;;;;;;;;3.75;1.50;;;;;20.67;59.52;101345.75;5002022;28;45518;-83
2021/08/09 10:31:31;;;;;;;;;5.50;3.00;;;;;20.69;59.09;101332.97;5001080;28;46151;-84
2021/08/09 10:33:58;;;;;;;;;3.75;2.50;;;;;20.72;59.12;101345.47;5001685;28;45340;-85
2021/08/09 10:36:25;;;;;;;;;1.50;1.50;;;;;20.74;59.32;101335.38;5001858;28;45315;-85
2021/08/09 10:38:53;;;;;;;;;3.00;3.00;;;;;20.82;59.17;101335.75;5001865;28;45403;-85
2021/08/09 10:41:33;;;;;;;;;2.75;2.25;;;;;20.83;58.63;101329.38;5001466;28;46075;-83
2021/08/09 10:44:04;;;;;;;;;3.50;3.50;;;;;20.89;58.83;101339.78;5001584;28;45330;-84
2021/08/09 10:46:38;;;;;;;;;2.00;2.00;;;;;20.92;58.26;101330.59;5001694;28;45522;-84
2021/08/09 10:49:05;;;;;;;;;2.25;2.25;;;;;20.95;58.30;101338.53;5001619;28;45445;-85
2021/08/09 10:51:52;;;;;;;;;3.00;3.00;;;;;20.99;58.25;101333.75;5001587;28;45358;-84
2021/08/09 10:54:36;;;;;;;;;2.75;2.00;;;;;21.00;57.67;101332.78;5001278;28;45519;-82
2021/08/09 10:57:03;;;;;;;;;1.00;1.00;;;;;21.03;58.14;101332.56;5001659;28;45471;-83
2021/08/09 10:59:45;;;;;;;;;1.75;1.75;;;;;;;;5001569;28;45462;-82
2021/08/09 11:02:21;;;;;;;;;2.00;2.00;;;;;21.10;57.30;101329.34;5000963;28;46116;-82
2021/08/09 11:05:16;;;;;;;;;1.00;1.00;;;;;21.14;57.37;101331.88;5001383;28;45574;-83
2021/08/09 11:07:43;;;;;;;;;2.00;2.00;;;;;21.13;56.67;101330.97;4986284;28;45514;-82
2021/08/09 11:10:09;;;;;;;;;3.25;2.00;;;;;21.15;57.34;101334.47;5001255;28;45315;-83
2021/08/09 11:12:59;;;;;;;;;1.00;1.00;;;;;21.14;56.71;101335.44;5001149;28;45619;-82
2021/08/09 11:15:25;;;;;;;;;3.75;2.25;;;;;21.16;56.83;101332.63;5001053;28;45497;-82
2021/08/09 11:17:56;;;;;;;;;3.00;2.00;;;;;21.16;57.39;101328.06;5001148;28;45378;-83
2021/08/09 11:20:32;;;;;;;;;1.50;1.50;;;;;21.19;57.41;101324.28;5001383;28;45230;-82
2021/08/09 11:23:07;;;;;;;;;1.00;1.00;;;;;21.23;56.56;101317.66;5000897;28;47145;-83
2021/08/09 11:25:33;;;;;;;;;2.25;2.25;;;;;21.25;56.98;101331.97;5001017;28;45319;-82
2021/08/09 11:28:00;;;;;;;;;3.50;2.00;;;;;21.20;56.08;101318.75;5000999;28;45467;-84
2021/08/09 11:30:40;;;;;;;;;4.00;3.25;;;;;21.29;56.87;101328.09;5000894;28;45383;-83